sensor_id;sensor_type;location;lat;lon;timestamp;temperature;humidity
21214;DHT22;10764;50.850;2.904;2023-11-19T00:01:04;20.40;76.40
21214;DHT22;10764;50.850;2.904;2023-11-19T00:03:35;20.60;76.70
21214;DHT22;10764;50.850;2.904;2023-11-19T00:06:05;20.80;76.80
21214;DHT22;10764;50.850;2.904;2023-11-19T00:08:33;20.80;77.10
21214;DHT22;10764;50.850;2.904;2023-11-19T00:11:00;21.40;77.30
21214;DHT22;10764;50.850;2.904;2023-11-19T00:13:28;20.50;76.40
21214;DHT22;10764;50.850;2.904;2023-11-19T00:15:56;22.60;77.70
21214;DHT22;10764;50.850;2.904;2023-11-19T00:18:25;20.70;76.60
21214;DHT22;10764;50.850;2.904;2023-11-19T00:20:55;19.70;76.00
21214;DHT22;10764;50.850;2.904;2023-11-19T00:23:23;20.60;76.30
21214;DHT22;10764;50.850;2.904;2023-11-19T00:25:54;20.80;76.30
21214;DHT22;10764;50.850;2.904;2023-11-19T00:28:22;20.70;76.60
21214;DHT22;10764;50.850;2.904;2023-11-19T00:30:50;20.70;76.50
21214;DHT22;10764;50.850;2.904;2023-11-19T00:33:18;20.50;76.30
21214;DHT22;10764;50.850;2.904;2023-11-19T00:35:47;20.80;76.30
21214;DHT22;10764;50.850;2.904;2023-11-19T00:38:16;20.80;76.60
21214;DHT22;10764;50.850;2.904;2023-11-19T00:40:45;20.70;76.20
21214;DHT22;10764;50.850;2.904;2023-11-19T00:43:13;20.50;75.90
21214;DHT22;10764;50.850;2.904;2023-11-19T00:45:44;20.70;75.90
21214;DHT22;10764;50.850;2.904;2023-11-19T00:48:11;20.70;76.60
21214;DHT22;10764;50.850;2.904;2023-11-19T00:50:39;20.50;75.90
21214;DHT22;10764;50.850;2.904;2023-11-19T00:53:10;20.70;76.10
21214;DHT22;10764;50.850;2.904;2023-11-19T00:55:37;19.90;75.90
21214;DHT22;10764;50.850;2.904;2023-11-19T00:58:13;20.60;75.90
21214;DHT22;10764;50.850;2.904;2023-11-19T01:00:43;20.80;76.20
21214;DHT22;10764;50.850;2.904;2023-11-19T01:03:11;21.00;76.20
21214;DHT22;10764;50.850;2.904;2023-11-19T01:05:39;20.50;76.00
21214;DHT22;10764;50.850;2.904;2023-11-19T01:08:07;20.60;76.00
21214;DHT22;10764;50.850;2.904;2023-11-19T01:10:37;20.60;76.00
21214;DHT22;10764;50.850;2.904;2023-11-19T01:13:07;20.80;75.90
21214;DHT22;10764;50.850;2.904;2023-11-19T01:15:37;18.00;74.10
21214;DHT22;10764;50.850;2.904;2023-11-19T01:18:07;20.60;75.70
21214;DHT22;10764;50.850;2.904;2023-11-19T01:20:36;20.70;75.60
21214;DHT22;10764;50.850;2.904;2023-11-19T01:23:03;20.80;75.80
21214;DHT22;10764;50.850;2.904;2023-11-19T01:25:30;20.70;75.90
21214;DHT22;10764;50.850;2.904;2023-11-19T01:27:58;20.60;75.90
21214;DHT22;10764;50.850;2.904;2023-11-19T01:30:27;20.60;75.90
21214;DHT22;10764;50.850;2.904;2023-11-19T01:32:54;20.70;75.90
21214;DHT22;10764;50.850;2.904;2023-11-19T01:35:23;20.70;75.70
21214;DHT22;10764;50.850;2.904;2023-11-19T01:37:53;20.60;75.70
21214;DHT22;10764;50.850;2.904;2023-11-19T01:40:21;20.70;75.50
21214;DHT22;10764;50.850;2.904;2023-11-19T01:42:49;20.70;75.20
21214;DHT22;10764;50.850;2.904;2023-11-19T01:45:28;20.80;75.80
21214;DHT22;10764;50.850;2.904;2023-11-19T01:48:01;20.70;75.80
21214;DHT22;10764;50.850;2.904;2023-11-19T01:50:32;20.70;75.90
21214;DHT22;10764;50.850;2.904;2023-11-19T01:52:59;20.70;75.50
21214;DHT22;10764;50.850;2.904;2023-11-19T01:55:30;20.90;75.40
21214;DHT22;10764;50.850;2.904;2023-11-19T01:58:00;20.90;75.60
21214;DHT22;10764;50.850;2.904;2023-11-19T02:00:28;20.60;75.40
21214;DHT22;10764;50.850;2.904;2023-11-19T02:02:57;18.20;74.10
21214;DHT22;10764;50.850;2.904;2023-11-19T02:05:30;20.50;75.50
21214;DHT22;10764;50.850;2.904;2023-11-19T02:07:59;20.60;75.40
21214;DHT22;10764;50.850;2.904;2023-11-19T02:10:27;20.60;75.10
21214;DHT22;10764;50.850;2.904;2023-11-19T02:12:58;20.70;75.30
21214;DHT22;10764;50.850;2.904;2023-11-19T02:15:34;20.90;75.50
21214;DHT22;10764;50.850;2.904;2023-11-19T02:18:22;20.70;75.40
21214;DHT22;10764;50.850;2.904;2023-11-19T02:20:51;20.90;75.10
21214;DHT22;10764;50.850;2.904;2023-11-19T02:23:20;20.70;75.20
21214;DHT22;10764;50.850;2.904;2023-11-19T02:28:36;21.50;74.30
21214;DHT22;10764;50.850;2.904;2023-11-19T02:31:04;20.10;74.60
21214;DHT22;10764;50.850;2.904;2023-11-19T02:33:40;20.90;72.70
21214;DHT22;10764;50.850;2.904;2023-11-19T02:36:09;21.60;75.60
21214;DHT22;10764;50.850;2.904;2023-11-19T02:38:37;20.70;74.70
21214;DHT22;10764;50.850;2.904;2023-11-19T02:41:05;21.70;75.50
21214;DHT22;10764;50.850;2.904;2023-11-19T02:43:34;20.50;74.90
21214;DHT22;10764;50.850;2.904;2023-11-19T02:46:02;20.60;74.90
21214;DHT22;10764;50.850;2.904;2023-11-19T02:48:41;20.70;74.90
21214;DHT22;10764;50.850;2.904;2023-11-19T02:51:10;20.60;74.80
21214;DHT22;10764;50.850;2.904;2023-11-19T02:53:37;20.70;74.50
21214;DHT22;10764;50.850;2.904;2023-11-19T02:56:07;20.50;74.50
21214;DHT22;10764;50.850;2.904;2023-11-19T02:58:52;20.90;72.40
21214;DHT22;10764;50.850;2.904;2023-11-19T03:01:24;20.80;74.50
21214;DHT22;10764;50.850;2.904;2023-11-19T03:03:59;21.00;74.50
21214;DHT22;10764;50.850;2.904;2023-11-19T03:06:30;20.70;74.50
21214;DHT22;10764;50.850;2.904;2023-11-19T03:08:57;20.60;74.50
21214;DHT22;10764;50.850;2.904;2023-11-19T03:11:25;20.50;74.00
21214;DHT22;10764;50.850;2.904;2023-11-19T03:13:52;20.50;74.00
21214;DHT22;10764;50.850;2.904;2023-11-19T03:16:22;20.50;74.00
21214;DHT22;10764;50.850;2.904;2023-11-19T03:18:49;20.80;74.20
21214;DHT22;10764;50.850;2.904;2023-11-19T03:21:17;20.80;74.40
21214;DHT22;10764;50.850;2.904;2023-11-19T03:23:50;20.60;74.00
21214;DHT22;10764;50.850;2.904;2023-11-19T03:26:21;20.80;74.20
21214;DHT22;10764;50.850;2.904;2023-11-19T03:28:51;21.10;74.20
21214;DHT22;10764;50.850;2.904;2023-11-19T03:31:20;20.90;74.20
21214;DHT22;10764;50.850;2.904;2023-11-19T03:33:49;20.50;74.20
21214;DHT22;10764;50.850;2.904;2023-11-19T03:36:16;20.70;74.00
21214;DHT22;10764;50.850;2.904;2023-11-19T03:38:45;20.90;74.30
21214;DHT22;10764;50.850;2.904;2023-11-19T03:41:16;20.40;73.80
21214;DHT22;10764;50.850;2.904;2023-11-19T03:43:45;20.80;73.90
21214;DHT22;10764;50.850;2.904;2023-11-19T03:46:24;20.70;74.00
21214;DHT22;10764;50.850;2.904;2023-11-19T03:48:51;20.70;73.70
21214;DHT22;10764;50.850;2.904;2023-11-19T03:51:19;20.80;73.90
21214;DHT22;10764;50.850;2.904;2023-11-19T03:53:50;21.50;74.60
21214;DHT22;10764;50.850;2.904;2023-11-19T03:56:18;20.70;73.80
21214;DHT22;10764;50.850;2.904;2023-11-19T03:58:44;20.70;73.70
21214;DHT22;10764;50.850;2.904;2023-11-19T04:01:17;20.70;73.80
21214;DHT22;10764;50.850;2.904;2023-11-19T04:03:46;20.70;73.30
21214;DHT22;10764;50.850;2.904;2023-11-19T04:06:19;20.60;73.40
21214;DHT22;10764;50.850;2.904;2023-11-19T04:08:49;20.80;73.60
21214;DHT22;10764;50.850;2.904;2023-11-19T04:11:18;20.70;73.50
21214;DHT22;10764;50.850;2.904;2023-11-19T04:13:45;20.60;73.00
21214;DHT22;10764;50.850;2.904;2023-11-19T04:16:13;20.70;73.40
21214;DHT22;10764;50.850;2.904;2023-11-19T04:18:42;20.50;73.00
21214;DHT22;10764;50.850;2.904;2023-11-19T04:21:09;20.60;73.00
21214;DHT22;10764;50.850;2.904;2023-11-19T04:23:38;20.60;72.80
21214;DHT22;10764;50.850;2.904;2023-11-19T04:26:05;20.50;72.80
21214;DHT22;10764;50.850;2.904;2023-11-19T04:28:37;20.40;73.00
21214;DHT22;10764;50.850;2.904;2023-11-19T04:31:06;20.50;73.00
21214;DHT22;10764;50.850;2.904;2023-11-19T04:33:33;20.50;73.00
21214;DHT22;10764;50.850;2.904;2023-11-19T04:36:03;20.50;73.20
21214;DHT22;10764;50.850;2.904;2023-11-19T04:38:30;20.40;72.60
21214;DHT22;10764;50.850;2.904;2023-11-19T04:40:58;20.40;72.50
21214;DHT22;10764;50.850;2.904;2023-11-19T04:43:28;20.60;72.60
21214;DHT22;10764;50.850;2.904;2023-11-19T04:45:55;20.50;72.70
21214;DHT22;10764;50.850;2.904;2023-11-19T04:48:22;20.80;72.80
21214;DHT22;10764;50.850;2.904;2023-11-19T04:50:52;20.60;72.50
21214;DHT22;10764;50.850;2.904;2023-11-19T04:53:19;17.90;71.50
21214;DHT22;10764;50.850;2.904;2023-11-19T04:55:46;20.80;72.70
21214;DHT22;10764;50.850;2.904;2023-11-19T04:58:16;20.80;72.50
21214;DHT22;10764;50.850;2.904;2023-11-19T05:00:45;20.70;72.80
21214;DHT22;10764;50.850;2.904;2023-11-19T05:03:18;20.70;70.00
21214;DHT22;10764;50.850;2.904;2023-11-19T05:05:46;20.40;72.10
21214;DHT22;10764;50.850;2.904;2023-11-19T05:08:15;20.80;72.70
21214;DHT22;10764;50.850;2.904;2023-11-19T05:10:43;20.70;72.50
21214;DHT22;10764;50.850;2.904;2023-11-19T05:13:10;20.50;72.40
21214;DHT22;10764;50.850;2.904;2023-11-19T05:15:41;20.70;72.20
21214;DHT22;10764;50.850;2.904;2023-11-19T05:18:10;20.60;72.50
21214;DHT22;10764;50.850;2.904;2023-11-19T05:20:38;20.60;72.40
21214;DHT22;10764;50.850;2.904;2023-11-19T05:23:05;20.30;72.10
21214;DHT22;10764;50.850;2.904;2023-11-19T05:25:33;20.70;72.50
21214;DHT22;10764;50.850;2.904;2023-11-19T05:28:03;22.30;73.10
21214;DHT22;10764;50.850;2.904;2023-11-19T05:30:31;20.60;72.30
21214;DHT22;10764;50.850;2.904;2023-11-19T05:32:59;20.20;71.90
21214;DHT22;10764;50.850;2.904;2023-11-19T05:35:27;20.60;72.20
21214;DHT22;10764;50.850;2.904;2023-11-19T05:37:54;21.00;72.30
21214;DHT22;10764;50.850;2.904;2023-11-19T05:40:25;20.80;72.10
21214;DHT22;10764;50.850;2.904;2023-11-19T05:42:54;20.80;71.80
21214;DHT22;10764;50.850;2.904;2023-11-19T05:45:23;20.60;71.80
21214;DHT22;10764;50.850;2.904;2023-11-19T05:47:53;20.60;71.90
21214;DHT22;10764;50.850;2.904;2023-11-19T05:50:23;20.70;71.90
21214;DHT22;10764;50.850;2.904;2023-11-19T05:52:50;20.00;71.70
21214;DHT22;10764;50.850;2.904;2023-11-19T05:55:20;20.70;71.90
21214;DHT22;10764;50.850;2.904;2023-11-19T05:57:47;20.40;72.50
21214;DHT22;10764;50.850;2.904;2023-11-19T06:00:15;20.40;71.50
21214;DHT22;10764;50.850;2.904;2023-11-19T06:02:45;20.50;71.60
21214;DHT22;10764;50.850;2.904;2023-11-19T06:05:14;20.60;71.50
21214;DHT22;10764;50.850;2.904;2023-11-19T06:07:40;20.90;71.90
21214;DHT22;10764;50.850;2.904;2023-11-19T06:10:08;20.70;72.40
21214;DHT22;10764;50.850;2.904;2023-11-19T06:12:39;20.60;71.60
21214;DHT22;10764;50.850;2.904;2023-11-19T06:15:09;20.60;71.60
21214;DHT22;10764;50.850;2.904;2023-11-19T06:17:36;20.90;72.30
21214;DHT22;10764;50.850;2.904;2023-11-19T06:20:04;20.80;71.50
21214;DHT22;10764;50.850;2.904;2023-11-19T06:22:32;20.80;71.50
21214;DHT22;10764;50.850;2.904;2023-11-19T06:24:59;20.70;71.50
21214;DHT22;10764;50.850;2.904;2023-11-19T06:27:30;20.80;71.70
21214;DHT22;10764;50.850;2.904;2023-11-19T06:29:57;20.70;71.50
21214;DHT22;10764;50.850;2.904;2023-11-19T06:32:27;20.60;71.20
21214;DHT22;10764;50.850;2.904;2023-11-19T06:34:56;20.80;71.80
21214;DHT22;10764;50.850;2.904;2023-11-19T06:37:24;20.50;71.30
21214;DHT22;10764;50.850;2.904;2023-11-19T06:39:51;20.50;71.00
21214;DHT22;10764;50.850;2.904;2023-11-19T06:42:18;20.50;71.10
21214;DHT22;10764;50.850;2.904;2023-11-19T06:44:45;20.70;71.20
21214;DHT22;10764;50.850;2.904;2023-11-19T06:47:12;20.60;71.30
21214;DHT22;10764;50.850;2.904;2023-11-19T06:49:39;20.70;71.40
21214;DHT22;10764;50.850;2.904;2023-11-19T06:52:06;20.50;71.30
21214;DHT22;10764;50.850;2.904;2023-11-19T06:54:33;21.70;71.80
21214;DHT22;10764;50.850;2.904;2023-11-19T06:57:00;20.80;71.30
21214;DHT22;10764;50.850;2.904;2023-11-19T06:59:28;20.70;71.30
21214;DHT22;10764;50.850;2.904;2023-11-19T07:01:56;20.60;71.50
21214;DHT22;10764;50.850;2.904;2023-11-19T07:04:26;20.90;71.20
21214;DHT22;10764;50.850;2.904;2023-11-19T07:06:53;20.70;70.90
21214;DHT22;10764;50.850;2.904;2023-11-19T07:09:20;20.60;70.30
21214;DHT22;10764;50.850;2.904;2023-11-19T07:11:47;20.50;70.30
21214;DHT22;10764;50.850;2.904;2023-11-19T07:14:18;20.70;70.70
21214;DHT22;10764;50.850;2.904;2023-11-19T07:16:46;20.50;70.70
21214;DHT22;10764;50.850;2.904;2023-11-19T07:19:14;20.90;70.60
21214;DHT22;10764;50.850;2.904;2023-11-19T07:21:42;20.80;70.30
21214;DHT22;10764;50.850;2.904;2023-11-19T07:24:10;20.90;70.50
21214;DHT22;10764;50.850;2.904;2023-11-19T07:26:46;20.80;70.60
21214;DHT22;10764;50.850;2.904;2023-11-19T07:29:14;20.60;70.90
21214;DHT22;10764;50.850;2.904;2023-11-19T07:31:55;20.70;70.40
21214;DHT22;10764;50.850;2.904;2023-11-19T07:34:24;20.50;70.00
21214;DHT22;10764;50.850;2.904;2023-11-19T07:36:52;20.90;70.50
21214;DHT22;10764;50.850;2.904;2023-11-19T07:39:19;20.30;69.50
21214;DHT22;10764;50.850;2.904;2023-11-19T07:41:48;20.60;70.10
21214;DHT22;10764;50.850;2.904;2023-11-19T07:44:15;20.60;71.60
21214;DHT22;10764;50.850;2.904;2023-11-19T07:46:43;23.70;74.30
21214;DHT22;10764;50.850;2.904;2023-11-19T07:49:11;21.00;72.80
21214;DHT22;10764;50.850;2.904;2023-11-19T07:51:39;20.80;72.40
21214;DHT22;10764;50.850;2.904;2023-11-19T07:54:06;20.80;72.10
21214;DHT22;10764;50.850;2.904;2023-11-19T07:56:33;20.90;71.80
21214;DHT22;10764;50.850;2.904;2023-11-19T07:59:04;20.90;69.70
21214;DHT22;10764;50.850;2.904;2023-11-19T08:01:32;20.90;72.50
21214;DHT22;10764;50.850;2.904;2023-11-19T08:03:59;21.20;74.30
21214;DHT22;10764;50.850;2.904;2023-11-19T08:06:29;21.10;75.30
21214;DHT22;10764;50.850;2.904;2023-11-19T08:08:56;19.80;74.40
21214;DHT22;10764;50.850;2.904;2023-11-19T08:11:24;20.70;74.90
21214;DHT22;10764;50.850;2.904;2023-11-19T08:13:51;20.80;75.10
21214;DHT22;10764;50.850;2.904;2023-11-19T08:16:18;20.30;74.10
21214;DHT22;10764;50.850;2.904;2023-11-19T08:18:45;21.20;74.50
21214;DHT22;10764;50.850;2.904;2023-11-19T08:21:13;20.70;74.10
21214;DHT22;10764;50.850;2.904;2023-11-19T08:23:41;20.80;73.70
21214;DHT22;10764;50.850;2.904;2023-11-19T08:26:08;20.70;73.40
21214;DHT22;10764;50.850;2.904;2023-11-19T08:28:35;20.80;73.20
21214;DHT22;10764;50.850;2.904;2023-11-19T08:31:04;21.00;73.50
21214;DHT22;10764;50.850;2.904;2023-11-19T08:33:32;20.90;73.70
21214;DHT22;10764;50.850;2.904;2023-11-19T08:35:59;20.80;72.50
21214;DHT22;10764;50.850;2.904;2023-11-19T08:38:27;20.90;73.00
21214;DHT22;10764;50.850;2.904;2023-11-19T08:40:57;20.70;72.70
21214;DHT22;10764;50.850;2.904;2023-11-19T08:43:28;21.00;72.60
21214;DHT22;10764;50.850;2.904;2023-11-19T08:45:55;21.00;72.20
21214;DHT22;10764;50.850;2.904;2023-11-19T08:48:22;20.90;71.70
21214;DHT22;10764;50.850;2.904;2023-11-19T08:50:49;20.60;71.80
21214;DHT22;10764;50.850;2.904;2023-11-19T08:53:16;20.90;71.90
21214;DHT22;10764;50.850;2.904;2023-11-19T08:55:44;21.00;71.50
21214;DHT22;10764;50.850;2.904;2023-11-19T08:58:12;20.90;71.30
21214;DHT22;10764;50.850;2.904;2023-11-19T09:00:40;20.70;71.40
21214;DHT22;10764;50.850;2.904;2023-11-19T09:03:08;21.10;72.20
21214;DHT22;10764;50.850;2.904;2023-11-19T09:05:37;20.90;71.00
21214;DHT22;10764;50.850;2.904;2023-11-19T09:08:06;20.90;71.40
21214;DHT22;10764;50.850;2.904;2023-11-19T09:10:33;20.70;71.00
21214;DHT22;10764;50.850;2.904;2023-11-19T09:13:01;20.70;70.60
21214;DHT22;10764;50.850;2.904;2023-11-19T09:15:28;17.80;68.70
21214;DHT22;10764;50.850;2.904;2023-11-19T09:17:55;19.60;69.70
21214;DHT22;10764;50.850;2.904;2023-11-19T09:20:22;20.80;70.80
21214;DHT22;10764;50.850;2.904;2023-11-19T09:22:49;20.80;70.70
21214;DHT22;10764;50.850;2.904;2023-11-19T09:25:17;21.10;70.90
21214;DHT22;10764;50.850;2.904;2023-11-19T09:27:45;20.20;70.30
21214;DHT22;10764;50.850;2.904;2023-11-19T09:30:12;20.60;70.60
21214;DHT22;10764;50.850;2.904;2023-11-19T09:32:40;20.70;70.70
21214;DHT22;10764;50.850;2.904;2023-11-19T09:35:08;19.90;70.30
21214;DHT22;10764;50.850;2.904;2023-11-19T09:37:35;20.70;70.60
21214;DHT22;10764;50.850;2.904;2023-11-19T09:40:02;19.50;69.50
21214;DHT22;10764;50.850;2.904;2023-11-19T09:42:32;21.00;71.60
21214;DHT22;10764;50.850;2.904;2023-11-19T09:45:07;20.90;70.70
21214;DHT22;10764;50.850;2.904;2023-11-19T09:47:40;21.10;70.80
21214;DHT22;10764;50.850;2.904;2023-11-19T09:50:07;20.80;70.50
21214;DHT22;10764;50.850;2.904;2023-11-19T09:52:35;20.80;70.20
21214;DHT22;10764;50.850;2.904;2023-11-19T09:55:01;20.70;70.20
21214;DHT22;10764;50.850;2.904;2023-11-19T09:57:31;20.60;70.20
21214;DHT22;10764;50.850;2.904;2023-11-19T10:00:01;21.20;70.70
21214;DHT22;10764;50.850;2.904;2023-11-19T10:02:33;21.10;70.80
21214;DHT22;10764;50.850;2.904;2023-11-19T10:05:04;20.80;70.20
21214;DHT22;10764;50.850;2.904;2023-11-19T10:07:33;20.90;70.40
21214;DHT22;10764;50.850;2.904;2023-11-19T10:10:01;20.90;70.40
21214;DHT22;10764;50.850;2.904;2023-11-19T10:12:31;20.70;70.90
21214;DHT22;10764;50.850;2.904;2023-11-19T10:14:59;21.00;70.30
21214;DHT22;10764;50.850;2.904;2023-11-19T10:17:33;20.80;70.70
21214;DHT22;10764;50.850;2.904;2023-11-19T10:20:01;20.20;69.60
21214;DHT22;10764;50.850;2.904;2023-11-19T10:22:28;20.80;70.10
21214;DHT22;10764;50.850;2.904;2023-11-19T10:24:55;20.70;70.20
21214;DHT22;10764;50.850;2.904;2023-11-19T10:27:25;20.60;70.10
21214;DHT22;10764;50.850;2.904;2023-11-19T10:29:54;20.70;70.20
21214;DHT22;10764;50.850;2.904;2023-11-19T10:32:21;20.50;69.80
21214;DHT22;10764;50.850;2.904;2023-11-19T10:35:04;20.80;69.80
21214;DHT22;10764;50.850;2.904;2023-11-19T10:37:33;21.10;70.10
21214;DHT22;10764;50.850;2.904;2023-11-19T10:40:02;20.80;70.00
21214;DHT22;10764;50.850;2.904;2023-11-19T10:42:32;20.80;70.00
21214;DHT22;10764;50.850;2.904;2023-11-19T10:45:00;20.80;69.80
21214;DHT22;10764;50.850;2.904;2023-11-19T10:47:27;20.60;70.00
21214;DHT22;10764;50.850;2.904;2023-11-19T10:49:58;20.80;70.10
21214;DHT22;10764;50.850;2.904;2023-11-19T10:52:27;20.70;69.80
21214;DHT22;10764;50.850;2.904;2023-11-19T10:55:00;20.80;69.80
21214;DHT22;10764;50.850;2.904;2023-11-19T10:57:30;20.90;70.10
21214;DHT22;10764;50.850;2.904;2023-11-19T11:00:02;20.90;70.20
21214;DHT22;10764;50.850;2.904;2023-11-19T11:02:35;21.10;70.30
21214;DHT22;10764;50.850;2.904;2023-11-19T11:05:07;21.00;70.20
21214;DHT22;10764;50.850;2.904;2023-11-19T11:07:35;20.90;71.00
21214;DHT22;10764;50.850;2.904;2023-11-19T11:10:08;21.10;70.20
21214;DHT22;10764;50.850;2.904;2023-11-19T11:12:37;20.90;70.20
21214;DHT22;10764;50.850;2.904;2023-11-19T11:15:11;22.20;68.90
21214;DHT22;10764;50.850;2.904;2023-11-19T11:17:41;20.90;69.10
21214;DHT22;10764;50.850;2.904;2023-11-19T11:20:10;20.70;69.50
21214;DHT22;10764;50.850;2.904;2023-11-19T11:28:52;22.90;69.60
21214;DHT22;10764;50.850;2.904;2023-11-19T11:37:18;22.50;69.20
21214;DHT22;10764;50.850;2.904;2023-11-19T11:39:47;20.90;69.80
21214;DHT22;10764;50.850;2.904;2023-11-19T11:45:08;21.10;70.00
21214;DHT22;10764;50.850;2.904;2023-11-19T11:50:17;20.70;67.20
21214;DHT22;10764;50.850;2.904;2023-11-19T11:57:53;20.80;69.30
21214;DHT22;10764;50.850;2.904;2023-11-19T12:00:28;21.20;69.20
21214;DHT22;10764;50.850;2.904;2023-11-19T12:02:59;20.90;69.40
21214;DHT22;10764;50.850;2.904;2023-11-19T12:05:27;21.00;69.60
21214;DHT22;10764;50.850;2.904;2023-11-19T12:08:01;21.00;69.70
21214;DHT22;10764;50.850;2.904;2023-11-19T12:10:43;20.70;69.40
21214;DHT22;10764;50.850;2.904;2023-11-19T12:13:11;21.10;70.00
21214;DHT22;10764;50.850;2.904;2023-11-19T12:18:26;20.90;69.50
21214;DHT22;10764;50.850;2.904;2023-11-19T12:20:55;21.10;69.50
21214;DHT22;10764;50.850;2.904;2023-11-19T12:23:23;21.00;69.40
21214;DHT22;10764;50.850;2.904;2023-11-19T12:25:51;21.10;69.30
21214;DHT22;10764;50.850;2.904;2023-11-19T12:28:19;20.90;70.40
21214;DHT22;10764;50.850;2.904;2023-11-19T12:30:46;20.60;69.00
21214;DHT22;10764;50.850;2.904;2023-11-19T12:33:15;21.10;69.60
21214;DHT22;10764;50.850;2.904;2023-11-19T12:35:45;20.90;69.30
21214;DHT22;10764;50.850;2.904;2023-11-19T12:38:22;20.80;69.60
21214;DHT22;10764;50.850;2.904;2023-11-19T12:41:03;21.10;67.80
21214;DHT22;10764;50.850;2.904;2023-11-19T12:43:30;20.70;69.20
21214;DHT22;10764;50.850;2.904;2023-11-19T12:45:57;20.70;69.10
21214;DHT22;10764;50.850;2.904;2023-11-19T12:48:25;21.00;69.40
21214;DHT22;10764;50.850;2.904;2023-11-19T12:50:58;23.30;70.40
21214;DHT22;10764;50.850;2.904;2023-11-19T12:53:26;20.80;69.00
21214;DHT22;10764;50.850;2.904;2023-11-19T12:55:54;22.80;70.20
21214;DHT22;10764;50.850;2.904;2023-11-19T12:58:36;20.90;69.20
21214;DHT22;10764;50.850;2.904;2023-11-19T13:01:05;20.90;69.20
21214;DHT22;10764;50.850;2.904;2023-11-19T13:03:34;21.00;69.20
21214;DHT22;10764;50.850;2.904;2023-11-19T13:06:05;20.90;69.30
21214;DHT22;10764;50.850;2.904;2023-11-19T13:08:47;21.00;69.30
21214;DHT22;10764;50.850;2.904;2023-11-19T13:11:35;22.20;68.60
21214;DHT22;10764;50.850;2.904;2023-11-19T13:14:04;21.10;67.60
21214;DHT22;10764;50.850;2.904;2023-11-19T13:16:32;21.00;69.50
21214;DHT22;10764;50.850;2.904;2023-11-19T13:19:00;20.90;69.40
21214;DHT22;10764;50.850;2.904;2023-11-19T13:21:28;21.10;69.50
21214;DHT22;10764;50.850;2.904;2023-11-19T13:23:56;20.50;69.10
21214;DHT22;10764;50.850;2.904;2023-11-19T13:26:23;20.90;69.50
21214;DHT22;10764;50.850;2.904;2023-11-19T13:28:50;22.30;70.50
21214;DHT22;10764;50.850;2.904;2023-11-19T13:31:18;20.70;69.20
21214;DHT22;10764;50.850;2.904;2023-11-19T13:33:45;21.10;69.50
21214;DHT22;10764;50.850;2.904;2023-11-19T13:36:12;18.40;67.70
21214;DHT22;10764;50.850;2.904;2023-11-19T13:38:43;20.90;69.30
21214;DHT22;10764;50.850;2.904;2023-11-19T13:41:14;21.00;66.80
21214;DHT22;10764;50.850;2.904;2023-11-19T13:43:41;20.80;69.40
21214;DHT22;10764;50.850;2.904;2023-11-19T13:46:08;21.10;69.50
21214;DHT22;10764;50.850;2.904;2023-11-19T13:48:39;20.80;66.60
21214;DHT22;10764;50.850;2.904;2023-11-19T13:51:06;20.90;69.40
21214;DHT22;10764;50.850;2.904;2023-11-19T13:53:34;20.70;69.30
21214;DHT22;10764;50.850;2.904;2023-11-19T13:56:05;20.70;69.40
21214;DHT22;10764;50.850;2.904;2023-11-19T13:58:32;20.80;69.30
21214;DHT22;10764;50.850;2.904;2023-11-19T14:00:59;21.00;69.70
21214;DHT22;10764;50.850;2.904;2023-11-19T14:03:26;20.90;69.40
21214;DHT22;10764;50.850;2.904;2023-11-19T14:05:53;21.10;69.20
21214;DHT22;10764;50.850;2.904;2023-11-19T14:08:22;20.70;68.80
21214;DHT22;10764;50.850;2.904;2023-11-19T14:10:52;21.10;69.00
21214;DHT22;10764;50.850;2.904;2023-11-19T14:13:23;20.90;69.00
21214;DHT22;10764;50.850;2.904;2023-11-19T14:15:50;21.10;69.00
21214;DHT22;10764;50.850;2.904;2023-11-19T14:18:18;20.90;68.80
21214;DHT22;10764;50.850;2.904;2023-11-19T14:20:45;20.90;68.70
21214;DHT22;10764;50.850;2.904;2023-11-19T14:23:12;20.90;69.20
21214;DHT22;10764;50.850;2.904;2023-11-19T14:25:40;20.90;68.70
21214;DHT22;10764;50.850;2.904;2023-11-19T14:28:07;20.70;68.50
21214;DHT22;10764;50.850;2.904;2023-11-19T14:30:34;20.90;69.80
21214;DHT22;10764;50.850;2.904;2023-11-19T14:33:01;20.90;69.00
21214;DHT22;10764;50.850;2.904;2023-11-19T14:35:31;21.40;69.20
21214;DHT22;10764;50.850;2.904;2023-11-19T14:37:59;20.80;68.80
21214;DHT22;10764;50.850;2.904;2023-11-19T14:40:26;21.30;69.00
21214;DHT22;10764;50.850;2.904;2023-11-19T14:42:56;21.10;68.50
21214;DHT22;10764;50.850;2.904;2023-11-19T14:45:23;21.00;68.60
21214;DHT22;10764;50.850;2.904;2023-11-19T14:47:50;20.80;68.70
21214;DHT22;10764;50.850;2.904;2023-11-19T14:50:19;20.90;68.60
21214;DHT22;10764;50.850;2.904;2023-11-19T14:52:46;20.80;68.40
21214;DHT22;10764;50.850;2.904;2023-11-19T14:55:13;19.70;68.00
21214;DHT22;10764;50.850;2.904;2023-11-19T14:57:40;21.00;68.50
21214;DHT22;10764;50.850;2.904;2023-11-19T15:00:13;21.30;68.50
21214;DHT22;10764;50.850;2.904;2023-11-19T15:02:43;21.10;68.60
21214;DHT22;10764;50.850;2.904;2023-11-19T15:05:10;20.80;68.00
21214;DHT22;10764;50.850;2.904;2023-11-19T15:07:40;21.10;68.60
21214;DHT22;10764;50.850;2.904;2023-11-19T15:10:07;20.80;68.00
21214;DHT22;10764;50.850;2.904;2023-11-19T15:12:38;20.70;68.20
21214;DHT22;10764;50.850;2.904;2023-11-19T15:15:07;21.00;68.10
21214;DHT22;10764;50.850;2.904;2023-11-19T15:17:36;20.80;68.00
21214;DHT22;10764;50.850;2.904;2023-11-19T15:20:04;20.80;67.80
21214;DHT22;10764;50.850;2.904;2023-11-19T15:22:31;20.90;68.00
21214;DHT22;10764;50.850;2.904;2023-11-19T15:24:58;20.60;67.80
21214;DHT22;10764;50.850;2.904;2023-11-19T15:27:25;20.70;68.20
21214;DHT22;10764;50.850;2.904;2023-11-19T15:29:53;20.70;68.40
21214;DHT22;10764;50.850;2.904;2023-11-19T15:32:20;20.20;68.10
21214;DHT22;10764;50.850;2.904;2023-11-19T15:34:47;20.70;68.40
21214;DHT22;10764;50.850;2.904;2023-11-19T15:37:15;21.00;68.60
21214;DHT22;10764;50.850;2.904;2023-11-19T15:39:42;19.20;67.20
21214;DHT22;10764;50.850;2.904;2023-11-19T15:42:09;20.90;68.30
21214;DHT22;10764;50.850;2.904;2023-11-19T15:44:38;20.70;68.10
21214;DHT22;10764;50.850;2.904;2023-11-19T15:47:06;20.90;68.50
21214;DHT22;10764;50.850;2.904;2023-11-19T15:49:33;20.80;68.50
21214;DHT22;10764;50.850;2.904;2023-11-19T15:52:00;21.40;68.50
21214;DHT22;10764;50.850;2.904;2023-11-19T15:54:27;22.40;68.90
21214;DHT22;10764;50.850;2.904;2023-11-19T15:56:54;21.00;68.50
21214;DHT22;10764;50.850;2.904;2023-11-19T15:59:21;20.90;68.30
21214;DHT22;10764;50.850;2.904;2023-11-19T16:01:49;20.50;67.90
21214;DHT22;10764;50.850;2.904;2023-11-19T16:04:16;20.90;68.10
21214;DHT22;10764;50.850;2.904;2023-11-19T16:06:44;21.00;68.40
21214;DHT22;10764;50.850;2.904;2023-11-19T16:09:12;20.70;68.30